createdAt,value
2022-09-13T00:01:36.568Z,10.10
2022-09-13T00:04:38.704Z,10.10
2022-09-13T00:07:40.819Z,10.20
2022-09-13T00:10:43.890Z,10.30
2022-09-13T00:13:46.568Z,10.50
2022-09-13T00:16:48.716Z,10.50
2022-09-13T00:19:50.801Z,10.60
2022-09-13T00:22:52.934Z,10.70
2022-09-13T00:26:04.995Z,10.80
2022-09-13T00:29:07.078Z,10.90
2022-09-13T00:32:09.178Z,10.80
2022-09-13T00:35:11.355Z,10.70
2022-09-13T00:38:13.431Z,10.60
2022-09-13T00:41:18.905Z,10.50
2022-09-13T00:45:12.275Z,10.60
2022-09-13T00:48:23.260Z,10.60
2022-09-13T00:51:25.988Z,10.80
2022-09-13T00:54:31.663Z,10.70
2022-09-13T00:57:33.822Z,11.00
2022-09-13T01:00:35.907Z,11.00
2022-09-13T01:03:38.045Z,11.00
2022-09-13T01:06:40.715Z,11.00
2022-09-13T01:09:45.282Z,11.10
2022-09-13T01:13:18.282Z,11.10
2022-09-13T01:16:20.362Z,11.10
2022-09-13T01:19:22.450Z,10.90
2022-09-13T01:22:57.822Z,10.80
2022-09-13T01:26:40.508Z,10.90
2022-09-13T01:30:24.092Z,11.00
2022-09-13T01:34:06.932Z,10.90
2022-09-13T01:37:38.438Z,10.70
2022-09-13T01:41:29.826Z,10.60
2022-09-13T01:44:58.390Z,10.40
2022-09-13T01:48:35.594Z,10.20
2022-09-13T01:51:44.767Z,10.40
2022-09-13T01:55:20.490Z,10.30
2022-09-13T01:58:45.717Z,10.40
2022-09-13T02:02:05.260Z,10.40
2022-09-13T02:05:19.738Z,10.60
2022-09-13T02:08:34.496Z,10.80
2022-09-13T02:11:36.821Z,10.90
2022-09-13T02:14:40.263Z,11.00
2022-09-13T02:17:52.547Z,10.90
2022-09-13T02:20:55.206Z,11.00
2022-09-13T02:24:29.836Z,10.90
2022-09-13T02:27:33.983Z,10.90
2022-09-13T02:30:40.507Z,10.80
2022-09-13T02:33:54.034Z,10.60
2022-09-13T02:36:56.071Z,10.50
2022-09-13T02:40:08.289Z,10.50
2022-09-13T02:43:18.299Z,10.60
2022-09-13T02:46:41.334Z,10.50
2022-09-13T02:50:03.093Z,10.50
2022-09-13T02:53:18.484Z,10.60
2022-09-13T02:56:30.511Z,10.40
2022-09-13T02:59:33.590Z,10.30
2022-09-13T03:02:35.682Z,10.20
2022-09-13T03:05:37.898Z,10.00
2022-09-13T03:08:39.922Z,10.10
2022-09-13T03:12:22.750Z,10.20
2022-09-13T03:15:51.158Z,10.10
2022-09-13T03:19:40.874Z,10.10
2022-09-13T03:23:24.893Z,9.90
2022-09-13T03:26:28.247Z,9.90
2022-09-13T03:30:06.748Z,10.00
2022-09-13T03:33:45.051Z,10.00
2022-09-13T03:37:13.618Z,10.10
2022-09-13T03:40:20.198Z,10.10
2022-09-13T03:43:36.599Z,10.20
2022-09-13T03:46:44.247Z,10.30
2022-09-13T03:49:46.472Z,10.20
2022-09-13T03:52:52.811Z,10.00
2022-09-13T03:55:54.929Z,10.00
2022-09-13T03:58:56.993Z,10.00
2022-09-13T04:01:59.077Z,10.00
2022-09-13T04:05:01.723Z,9.90
2022-09-13T04:08:05.814Z,10.00
2022-09-13T04:11:09.436Z,10.00
2022-09-13T04:14:11.451Z,10.00
2022-09-13T04:17:13.842Z,10.00
2022-09-13T04:20:16.003Z,10.00
2022-09-13T04:23:18.149Z,9.90
2022-09-13T04:26:20.246Z,10.00
2022-09-13T04:29:23.719Z,10.00
2022-09-13T04:32:25.789Z,10.00
2022-09-13T04:35:28.936Z,9.90
2022-09-13T04:38:31.991Z,9.80
2022-09-13T04:41:34.595Z,9.80
2022-09-13T04:44:36.667Z,9.90
2022-09-13T04:47:38.702Z,9.80
2022-09-13T04:50:40.706Z,9.70
2022-09-13T04:53:45.623Z,9.70
2022-09-13T04:56:47.741Z,9.70
2022-09-13T04:59:49.790Z,9.80
2022-09-13T05:02:56.559Z,9.90
2022-09-13T05:06:09.635Z,9.90
2022-09-13T05:09:14.170Z,9.80
2022-09-13T05:12:16.234Z,9.80
2022-09-13T05:15:18.279Z,9.70
2022-09-13T05:18:20.315Z,9.80
2022-09-13T05:21:22.495Z,9.80
2022-09-13T05:24:24.567Z,9.70
2022-09-13T05:27:26.635Z,9.80
2022-09-13T05:30:28.662Z,9.80
2022-09-13T05:33:33.159Z,9.80
2022-09-13T05:36:35.207Z,9.90
2022-09-13T05:40:00.396Z,9.90
2022-09-13T05:42:59.883Z,9.90
2022-09-13T05:46:06.244Z,10.00
2022-09-13T05:49:08.308Z,9.90
2022-09-13T05:52:10.415Z,9.90
2022-09-13T05:55:12.434Z,9.70
2022-09-13T05:58:14.457Z,9.70
2022-09-13T06:01:18.762Z,9.70
2022-09-13T06:04:20.823Z,9.70
2022-09-13T06:07:22.866Z,9.70
2022-09-13T06:10:25.369Z,9.90
2022-09-13T06:13:27.710Z,9.90
2022-09-13T06:16:29.799Z,10.00
2022-09-13T06:19:31.859Z,10.10
2022-09-13T06:22:35.309Z,10.20
2022-09-13T06:25:37.918Z,10.30
2022-09-13T06:28:40.130Z,10.20
2022-09-13T06:31:45.175Z,10.10
2022-09-13T06:34:48.255Z,10.20
2022-09-13T06:37:50.774Z,10.30
2022-09-13T06:41:07.713Z,10.40
2022-09-13T06:44:09.778Z,10.30
2022-09-13T06:47:13.285Z,10.20
2022-09-13T06:50:15.396Z,10.10
2022-09-13T06:53:17.468Z,10.10
2022-09-13T06:56:24.589Z,10.20
2022-09-13T06:59:26.612Z,10.40
2022-09-13T07:02:28.744Z,10.50
2022-09-13T07:05:30.914Z,10.60
2022-09-13T07:08:34.479Z,10.80
2022-09-13T07:11:38.667Z,11.00
2022-09-13T07:14:40.725Z,11.20
2022-09-13T07:17:42.895Z,11.50
2022-09-13T07:20:44.924Z,11.70
2022-09-13T07:23:47.076Z,11.90
2022-09-13T07:26:49.262Z,12.20
2022-09-13T07:29:51.284Z,12.30
2022-09-13T07:32:53.581Z,12.40
2022-09-13T07:35:57.443Z,12.50
2022-09-13T07:39:00.017Z,12.40
2022-09-13T07:42:02.051Z,12.20
2022-09-13T07:45:04.365Z,12.20
2022-09-13T07:48:06.425Z,12.40
2022-09-13T07:51:10.231Z,12.50
2022-09-13T07:54:17.685Z,12.50
2022-09-13T07:57:19.765Z,12.60
2022-09-13T08:00:21.850Z,12.60
2022-09-13T08:03:23.879Z,12.80
2022-09-13T08:06:27.812Z,13.00
2022-09-13T08:09:29.827Z,13.20
2022-09-13T08:12:31.859Z,13.30
2022-09-13T08:15:34.131Z,13.30
2022-09-13T08:18:36.207Z,13.40
2022-09-13T08:21:39.622Z,13.40
2022-09-13T08:24:41.666Z,13.50
2022-09-13T08:27:43.695Z,13.90
2022-09-13T08:30:45.871Z,13.90
2022-09-13T08:33:50.811Z,14.00
2022-09-13T08:36:53.053Z,14.10
2022-09-13T08:39:55.140Z,14.00
2022-09-13T08:43:21.591Z,14.00
2022-09-13T08:46:34.595Z,14.10
2022-09-13T08:49:44.372Z,14.30
2022-09-13T08:52:48.415Z,14.40
2022-09-13T08:56:10.863Z,14.30
2022-09-13T09:00:00.181Z,14.40
2022-09-13T09:03:43.553Z,14.60
2022-09-13T09:06:45.599Z,14.90
2022-09-13T09:09:53.065Z,15.10
2022-09-13T09:12:59.789Z,15.10
2022-09-13T09:16:45.127Z,15.10
2022-09-13T09:19:49.138Z,15.40
2022-09-13T09:22:52.283Z,15.40
2022-09-13T09:26:23.870Z,15.20
2022-09-13T09:29:28.711Z,15.50
2022-09-13T09:32:42.818Z,15.50
2022-09-13T09:36:38.074Z,15.70
2022-09-13T09:39:40.864Z,15.90
2022-09-13T09:42:48.887Z,15.80
2022-09-13T09:45:52.740Z,16.30
2022-09-13T09:48:59.371Z,16.10
2022-09-13T09:52:06.619Z,16.40
2022-09-13T09:55:45.852Z,16.80
2022-09-13T09:58:48.016Z,17.10
2022-09-13T10:01:50.882Z,17.10
2022-09-13T10:04:57.194Z,17.30
2022-09-13T10:08:06.114Z,17.60
2022-09-13T10:11:08.322Z,17.90
2022-09-13T10:14:35.350Z,17.70
2022-09-13T10:17:37.493Z,18.00
2022-09-13T10:20:39.607Z,18.00
2022-09-13T10:23:42.895Z,18.10
2022-09-13T10:26:45.076Z,17.60
2022-09-13T10:29:49.962Z,17.70
2022-09-13T10:32:56.154Z,17.80
2022-09-13T10:36:41.140Z,17.70
2022-09-13T10:40:06.126Z,18.00
2022-09-13T10:43:16.147Z,18.10
2022-09-13T10:46:22.812Z,18.30
2022-09-13T10:49:48.878Z,18.70
2022-09-13T10:52:55.002Z,18.70
2022-09-13T10:55:57.045Z,18.80
2022-09-13T10:59:37.616Z,19.10
2022-09-13T11:03:16.439Z,18.80
2022-09-13T11:06:26.414Z,18.60
2022-09-13T11:09:53.627Z,18.80
2022-09-13T11:13:02.076Z,19.00
2022-09-13T11:16:19.042Z,19.20
2022-09-13T11:19:56.301Z,19.40
2022-09-13T11:23:14.947Z,20.10
2022-09-13T11:27:04.677Z,19.80
2022-09-13T11:30:29.158Z,19.40
2022-09-13T11:34:00.143Z,19.40
2022-09-13T11:37:35.904Z,19.40
2022-09-13T11:40:58.191Z,20.30
2022-09-13T11:44:35.619Z,20.40
2022-09-13T11:48:23.447Z,19.90
2022-09-13T11:51:50.911Z,20.60
2022-09-13T11:55:21.263Z,20.30
2022-09-13T11:58:39.923Z,20.40
2022-09-13T12:01:53.390Z,20.70
2022-09-13T12:05:23.868Z,21.00
2022-09-13T12:08:36.600Z,20.80
2022-09-13T12:11:43.670Z,20.40
2022-09-13T12:15:00.210Z,20.20
2022-09-13T12:18:14.688Z,21.20
2022-09-13T12:21:23.418Z,21.30
2022-09-13T12:24:41.954Z,21.20
2022-09-13T12:27:59.532Z,21.80
2022-09-13T12:31:10.374Z,21.20
2022-09-13T12:34:26.443Z,21.40
2022-09-13T12:38:26.086Z,21.20
2022-09-13T12:41:42.168Z,22.00
2022-09-13T12:45:10.678Z,22.60
2022-09-13T12:48:34.403Z,22.70
2022-09-13T12:52:32.442Z,22.10
2022-09-13T12:56:19.587Z,22.40
2022-09-13T12:59:50.867Z,23.10
2022-09-13T13:03:13.090Z,22.20
2022-09-13T13:06:49.362Z,22.20
2022-09-13T13:09:53.911Z,22.30
2022-09-13T13:12:56.391Z,22.80
2022-09-13T13:16:04.052Z,23.10
2022-09-13T13:19:36.998Z,23.30
2022-09-13T13:22:44.897Z,23.40
2022-09-13T13:26:01.094Z,23.70
2022-09-13T13:29:03.702Z,24.40
2022-09-13T13:32:09.884Z,24.20
2022-09-13T13:35:29.404Z,24.00
2022-09-13T13:38:46.107Z,23.40
2022-09-13T13:42:00.304Z,24.00
2022-09-13T13:45:02.206Z,24.20
2022-09-13T13:48:40.395Z,24.60
2022-09-13T13:51:42.444Z,24.90
2022-09-13T13:55:00.933Z,24.50
2022-09-13T13:58:25.304Z,25.50
2022-09-13T14:01:31.778Z,26.30
2022-09-13T14:04:42.821Z,25.90
2022-09-13T14:07:54.098Z,25.60
2022-09-13T14:11:19.144Z,26.20
2022-09-13T14:15:03.496Z,26.30
2022-09-13T14:18:43.459Z,26.50
2022-09-13T14:21:45.578Z,25.70
2022-09-13T14:24:52.367Z,25.60
2022-09-13T14:27:57.066Z,26.30
2022-09-13T14:30:59.270Z,26.60
2022-09-13T14:34:01.303Z,27.20
2022-09-13T14:37:21.846Z,26.50
2022-09-13T14:40:28.415Z,27.00
2022-09-13T14:43:31.413Z,27.20
2022-09-13T14:46:39.396Z,27.00
2022-09-13T14:49:48.569Z,27.20
2022-09-13T14:52:54.031Z,27.20
2022-09-13T14:56:24.425Z,27.60
2022-09-13T14:59:47.848Z,27.50
2022-09-13T15:02:58.159Z,27.90
2022-09-13T15:06:01.739Z,28.10
2022-09-13T15:09:12.863Z,27.80
2022-09-13T15:12:26.845Z,29.00
2022-09-13T15:15:31.873Z,29.90
2022-09-13T15:18:36.964Z,29.80
2022-09-13T15:21:39.355Z,30.00
2022-09-13T15:24:56.454Z,31.50
2022-09-13T15:27:58.523Z,30.20
2022-09-13T15:31:01.210Z,31.30
2022-09-13T15:34:18.783Z,31.10
2022-09-13T15:37:30.025Z,30.20
2022-09-13T15:40:41.655Z,28.80
2022-09-13T15:43:44.247Z,27.10
2022-09-13T15:46:54.639Z,25.50
2022-09-13T15:49:56.739Z,25.20
2022-09-13T15:53:00.177Z,24.60
2022-09-13T15:56:03.387Z,26.90
2022-09-13T15:59:05.533Z,26.00
2022-09-13T16:02:23.501Z,24.50
2022-09-13T16:05:25.631Z,23.90
2022-09-13T16:08:27.677Z,23.40
2022-09-13T16:11:29.761Z,23.20
2022-09-13T16:14:31.831Z,24.90
2022-09-13T16:17:34.031Z,24.40
2022-09-13T16:20:36.091Z,23.80
2022-09-13T16:23:38.351Z,25.30
2022-09-13T16:26:40.970Z,27.10
2022-09-13T16:29:43.139Z,27.80
2022-09-13T16:32:45.184Z,28.80
2022-09-13T16:35:47.745Z,28.80
2022-09-13T16:38:49.866Z,28.90
2022-09-13T16:41:51.934Z,28.30
2022-09-13T16:44:54.035Z,28.10
2022-09-13T16:47:56.102Z,28.20
2022-09-13T16:51:06.042Z,27.80
2022-09-13T16:54:08.103Z,27.30
2022-09-13T16:57:10.528Z,25.30
2022-09-13T17:00:13.695Z,22.70
2022-09-13T17:03:15.816Z,21.90
2022-09-13T17:06:19.617Z,21.90
2022-09-13T17:09:23.756Z,22.90
2022-09-13T17:12:25.886Z,21.40
2022-09-13T17:15:27.948Z,21.40
2022-09-13T17:18:30.079Z,21.40
2022-09-13T17:21:33.784Z,21.90
2022-09-13T17:24:37.254Z,23.30
2022-09-13T17:27:39.371Z,23.40
2022-09-13T17:30:41.476Z,23.30
2022-09-13T17:33:43.563Z,23.20
2022-09-13T17:36:49.176Z,23.40
2022-09-13T17:39:53.047Z,23.20
2022-09-13T17:42:55.544Z,22.80
2022-09-13T17:45:57.683Z,22.50
2022-09-13T17:49:00.340Z,22.00
2022-09-13T17:52:03.185Z,22.20
2022-09-13T17:55:05.751Z,22.40
2022-09-13T17:58:07.798Z,22.00
2022-09-13T18:01:10.233Z,22.10
2022-09-13T18:04:12.959Z,21.50
2022-09-13T18:07:15.022Z,21.50
2022-09-13T18:10:45.187Z,21.20
2022-09-13T18:13:39.710Z,21.10
2022-09-13T18:16:42.094Z,20.60
2022-09-13T18:19:46.712Z,20.00
2022-09-13T18:22:49.096Z,19.60
2022-09-13T18:26:11.178Z,19.20
2022-09-13T18:29:13.932Z,18.70
2022-09-13T18:32:16.062Z,18.40
2022-09-13T18:35:18.166Z,18.10
2022-09-13T18:38:20.254Z,18.10
2022-09-13T18:41:40.464Z,17.90
2022-09-13T18:44:42.574Z,17.90
2022-09-13T18:47:45.975Z,17.60
2022-09-13T18:50:48.243Z,17.50
2022-09-13T18:53:50.792Z,17.50
2022-09-13T18:56:53.892Z,17.30
2022-09-13T19:00:00.585Z,17.40
2022-09-13T19:03:12.446Z,17.40
2022-09-13T19:06:39.295Z,17.30
2022-09-13T19:09:41.404Z,17.20
2022-09-13T19:12:43.818Z,17.00
2022-09-13T19:15:45.941Z,17.00
2022-09-13T19:18:51.463Z,16.70
2022-09-13T19:21:53.538Z,16.50
2022-09-13T19:24:55.579Z,16.30
2022-09-13T19:27:57.749Z,16.00
2022-09-13T19:31:07.872Z,15.80
2022-09-13T19:34:10.534Z,15.60
2022-09-13T19:37:12.599Z,15.40
2022-09-13T19:40:15.100Z,15.20
2022-09-13T19:43:17.216Z,15.10
2022-09-13T19:46:22.177Z,15.10
2022-09-13T19:49:24.252Z,15.10
2022-09-13T19:52:26.334Z,15.20
2022-09-13T19:55:28.471Z,15.00
2022-09-13T19:58:30.578Z,14.90
2022-09-13T20:01:37.323Z,14.90
2022-09-13T20:04:39.531Z,14.80
2022-09-13T20:07:44.794Z,14.70
2022-09-13T20:10:46.853Z,14.70
2022-09-13T20:13:49.070Z,14.60
2022-09-13T20:16:51.284Z,14.40
2022-09-13T20:19:53.312Z,14.10
2022-09-13T20:22:55.341Z,14.00
2022-09-13T20:25:57.386Z,14.00
2022-09-13T20:29:02.541Z,14.10
2022-09-13T20:32:04.634Z,13.80
2022-09-13T20:35:07.782Z,13.90
2022-09-13T20:38:09.861Z,13.80
2022-09-13T20:41:13.534Z,13.70
2022-09-13T20:44:15.877Z,13.50
2022-09-13T20:47:17.943Z,13.30
2022-09-13T20:50:20.361Z,13.30
2022-09-13T20:53:22.400Z,13.10
2022-09-13T20:56:24.707Z,13.00
2022-09-13T20:59:26.916Z,13.00
2022-09-13T21:02:29.572Z,12.90
2022-09-13T21:05:31.672Z,12.60
2022-09-13T21:08:42.979Z,12.50
2022-09-13T21:11:45.039Z,12.50
2022-09-13T21:14:47.150Z,12.50
2022-09-13T21:17:49.833Z,12.50
2022-09-13T21:20:58.506Z,12.50
2022-09-13T21:24:01.234Z,12.40
2022-09-13T21:27:03.407Z,12.30
2022-09-13T21:30:08.183Z,12.30
2022-09-13T21:33:10.510Z,12.20
2022-09-13T21:36:12.809Z,12.10
2022-09-13T21:39:15.099Z,12.00
2022-09-13T21:42:17.131Z,12.00
2022-09-13T21:45:19.161Z,12.00
2022-09-13T21:48:22.264Z,11.90
2022-09-13T21:51:26.858Z,12.00
2022-09-13T21:54:28.897Z,12.10
2022-09-13T21:57:30.985Z,12.00
2022-09-13T22:00:33.400Z,12.00
2022-09-13T22:03:36.398Z,12.00
2022-09-13T22:06:38.437Z,12.00
2022-09-13T22:09:40.535Z,12.00
2022-09-13T22:12:42.570Z,11.90
2022-09-13T22:15:44.661Z,11.80
2022-09-13T22:18:48.467Z,11.80
2022-09-13T22:21:54.343Z,11.80
2022-09-13T22:24:56.382Z,11.70
2022-09-13T22:27:58.423Z,11.50
2022-09-13T22:31:13.035Z,11.40
2022-09-13T22:34:17.933Z,11.60
2022-09-13T22:37:19.996Z,11.60
2022-09-13T22:40:22.390Z,11.60
2022-09-13T22:43:24.898Z,11.60
2022-09-13T22:46:33.163Z,11.50
2022-09-13T22:49:35.228Z,11.50
2022-09-13T22:52:37.307Z,11.50
2022-09-13T22:55:39.351Z,11.50
2022-09-13T22:58:41.639Z,11.70
2022-09-13T23:01:43.914Z,11.70
2022-09-13T23:04:46.082Z,11.70
2022-09-13T23:07:48.116Z,11.70
2022-09-13T23:10:51.652Z,11.70
2022-09-13T23:13:55.178Z,11.70
2022-09-13T23:16:57.256Z,11.70
2022-09-13T23:19:59.338Z,11.80
2022-09-13T23:23:01.429Z,11.90
2022-09-13T23:26:06.392Z,12.00
2022-09-13T23:29:11.970Z,11.90
2022-09-13T23:32:14.088Z,11.80
2022-09-13T23:35:16.255Z,11.70
2022-09-13T23:38:18.287Z,11.60
2022-09-13T23:41:20.594Z,11.50
2022-09-13T23:44:22.767Z,11.50
2022-09-13T23:47:24.808Z,11.40
2022-09-13T23:50:26.861Z,11.40
2022-09-13T23:53:29.111Z,11.50
2022-09-13T23:56:31.861Z,11.50
2022-09-13T23:59:34.002Z,11.50
